Flushing, NY (11367)

11:20 AM EST on December 28, 2014 (GMT -0500)
Meadow Lake | Change Station
CLOSE
Current Station
Personal Weather Station
Location: New York, NY
Elevation: -10 ft
Nearby Weather Stations

Elev -10 ft 40.73 °N, 73.84 °W | Updated 52 minutes ago

Overcast
Overcast
46.2 °F
Feels Like 46 °F
N
1.8
Wind Variable Wind from WSW
Gusts 6.3 mph

Today
High -- | Low -- °F
--% Chance of Precip.
Yesterday
High -- | Low -- °F
Precip. -- in
7:18 AM 4:35 PM
Waxing Crescent, 49% visible
Pressure 29.90 in
Visibility 8.0 miles
Clouds Few 6000 ft
Scattered Clouds 7000 ft
Mostly Cloudy 9000 ft
Mostly Cloudy 13000 ft
Windchill 46 °F
Dew Point 43 °F
Humidity 87%
Rainfall -999.00 in
Snow Depth Not available.
UV 1 out of 12
Pollen .10 out of 12
Air Quality Not available.
Flu Activity Not available.
METAR KLGA 281551Z 22007KT 8SM FEW060 SCT070 BKN090 BKN130 08/05 A2990 RMK AO2 RAE13 SLP125 P0000 T00780050

More Conditions Fewer Conditions

Pressure 29.90 in
Visibility 8.0 miles
Clouds Few 6000 ft
Scattered Clouds 7000 ft
Mostly Cloudy 9000 ft
Mostly Cloudy 13000 ft
Windchill 46 °F
Dew Point 43 °F
Humidity 87%
Rainfall -999.00 in
Snow Depth Not available.
UV 1 out of 12
Pollen .10 out of 12
Air Quality Not available.
Flu Activity Not available.
METAR KLGA 281551Z 22007KT 8SM FEW060 SCT070 BKN090 BKN130 08/05 A2990 RMK AO2 RAE13 SLP125 P0000 T00780050

More Conditions Fewer Conditions

10-Day Weather Forecast

Almanac

Astronomy

Dec. 28, 2014 Rise Set
Actual Time
Civil Twilight
Nautical Twilight
Astronomical Twilight
Moon
Length of Visible Light
Length of Day
Tomorrow will be .
, % of the Moon is Illuminated

Today's Extremes

State Highs State Lows

Community

WunderPhotos

Upload Photos

1,781,323 photos uploaded!

WunderBlogs® & News

Nearby

Air Quality

  Air Quality AQ Index Pollutant
Not available.

Snow Depth

Station Depth Elevation

Earthquake Activity

City Distance Mag. Time & Date
Minimum magnitude displayed is 2.5.

Coastal Water Temperatures

Place Temperature

Nearby Weather Stations